createdAt,value
2023-04-14T00:00:28.942Z,21.25
2023-04-14T00:02:56.224Z,16.88
2023-04-14T00:05:23.570Z,20.73
2023-04-14T00:07:56.918Z,23.77
2023-04-14T00:10:24.319Z,16.42
2023-04-14T00:12:58.853Z,22.17
2023-04-14T00:15:26.016Z,17.00
2023-04-14T00:17:53.279Z,16.25
2023-04-14T00:20:26.863Z,15.73
2023-04-14T00:22:54.048Z,16.17
2023-04-14T00:25:27.946Z,21.98
2023-04-14T00:27:55.357Z,20.05
2023-04-14T00:30:42.060Z,23.45
2023-04-14T00:33:09.227Z,21.83
2023-04-14T00:35:36.956Z,28.63
2023-04-14T00:38:10.939Z,27.25
2023-04-14T00:40:38.204Z,23.70
2023-04-14T00:43:11.934Z,29.35
2023-04-14T00:45:46.379Z,28.77
2023-04-14T00:48:22.870Z,17.38
2023-04-14T00:50:50.142Z,22.23
2023-04-14T00:53:17.382Z,28.13
2023-04-14T00:55:50.954Z,25.27
2023-04-14T00:58:18.106Z,26.38
2023-04-14T01:00:53.002Z,26.20
2023-04-14T01:03:20.276Z,31.25
2023-04-14T01:05:47.590Z,27.23
2023-04-14T01:08:21.871Z,29.95
2023-04-14T01:11:12.057Z,21.73
2023-04-14T01:13:53.872Z,27.70
2023-04-14T01:16:29.253Z,26.95
2023-04-14T01:19:23.924Z,34.08
2023-04-14T01:21:52.407Z,40.05
2023-04-14T01:24:28.881Z,43.10
2023-04-14T01:27:22.432Z,23.35
2023-04-14T01:30:08.062Z,24.55
2023-04-14T01:32:43.919Z,22.48
2023-04-14T01:35:23.909Z,37.90
2023-04-14T01:37:53.321Z,35.80
2023-04-14T01:40:28.897Z,29.70
2023-04-14T01:42:59.456Z,41.28
2023-04-14T01:45:34.924Z,36.97
2023-04-14T01:48:02.198Z,31.75
2023-04-14T01:50:35.992Z,39.55
2023-04-14T01:53:04.083Z,32.97
2023-04-14T01:55:46.040Z,38.25
2023-04-14T01:58:13.373Z,42.50
2023-04-14T02:00:41.670Z,53.05
2023-04-14T02:03:15.961Z,55.97
2023-04-14T02:05:43.674Z,62.13
2023-04-14T02:08:19.890Z,38.28
2023-04-14T02:10:47.783Z,30.45
2023-04-14T02:13:22.226Z,28.63
2023-04-14T02:15:50.941Z,52.17
2023-04-14T02:18:19.737Z,53.63
2023-04-14T02:20:54.878Z,27.23
2023-04-14T02:23:22.079Z,32.90
2023-04-14T02:26:08.927Z,41.95
2023-04-14T02:28:37.735Z,30.05
2023-04-14T02:31:23.333Z,27.83
2023-04-14T02:33:54.971Z,35.45
2023-04-14T02:36:32.138Z,33.85
2023-04-14T02:39:01.712Z,34.25
2023-04-14T02:41:30.634Z,54.75
2023-04-14T02:44:22.967Z,41.42
2023-04-14T02:46:56.509Z,44.78
2023-04-14T02:49:31.021Z,44.05
2023-04-14T02:51:58.195Z,50.72
2023-04-14T02:54:32.020Z,29.95
2023-04-14T02:56:59.284Z,25.83
2023-04-14T02:59:27.045Z,31.23
2023-04-14T03:02:01.038Z,38.60
2023-04-14T03:04:30.275Z,30.15
2023-04-14T03:07:04.052Z,38.78
2023-04-14T03:09:32.113Z,35.60
2023-04-14T03:11:59.847Z,38.35
2023-04-14T03:14:33.965Z,42.65
2023-04-14T03:17:01.889Z,50.22
2023-04-14T03:19:36.039Z,57.10
2023-04-14T03:22:04.529Z,63.47
2023-04-14T03:24:46.042Z,62.03
2023-04-14T03:27:15.478Z,53.15
2023-04-14T03:29:58.920Z,65.10
2023-04-14T03:32:27.225Z,67.10
2023-04-14T03:34:55.375Z,57.20
2023-04-14T03:37:30.916Z,58.88
2023-04-14T03:40:02.206Z,58.85
2023-04-14T03:42:36.906Z,63.85
2023-04-14T03:45:04.500Z,55.95
2023-04-14T03:50:06.537Z,52.60
2023-04-14T03:52:35.315Z,59.63
2023-04-14T03:55:12.907Z,52.15
2023-04-14T03:57:40.480Z,54.17
2023-04-14T04:02:43.341Z,56.78
2023-04-14T04:05:18.050Z,55.22
2023-04-14T04:07:46.615Z,58.00
2023-04-14T04:10:14.749Z,56.88
2023-04-14T04:12:48.907Z,59.00
2023-04-14T04:15:16.537Z,58.40
2023-04-14T04:20:17.555Z,48.13
2023-04-14T04:22:45.478Z,56.10
2023-04-14T04:25:20.037Z,63.88
2023-04-14T04:27:47.364Z,64.18
2023-04-14T04:30:21.964Z,62.75
2023-04-14T04:32:55.855Z,61.63
2023-04-14T04:35:31.058Z,68.32
2023-04-14T04:38:00.910Z,64.22
2023-04-14T04:40:28.088Z,68.15
2023-04-14T04:43:01.946Z,65.47
2023-04-14T04:45:47.750Z,65.63
2023-04-14T04:48:21.999Z,64.20
2023-04-14T04:50:49.077Z,55.25
2023-04-14T04:53:16.338Z,57.17
2023-04-14T04:55:50.023Z,56.92
2023-04-14T04:58:17.182Z,59.35
2023-04-14T05:00:51.171Z,56.95
2023-04-14T05:03:18.397Z,57.75
2023-04-14T05:05:45.553Z,55.85
2023-04-14T05:08:18.959Z,52.25
2023-04-14T05:10:46.278Z,54.47
2023-04-14T05:13:19.960Z,52.30
2023-04-14T05:15:47.167Z,56.70
2023-04-14T05:18:14.315Z,56.50
2023-04-14T05:20:47.941Z,48.58
2023-04-14T05:23:15.522Z,52.67
2023-04-14T05:28:16.740Z,49.38
2023-04-14T05:30:58.835Z,49.05
2023-04-14T05:33:27.200Z,46.10
2023-04-14T05:35:54.573Z,45.83
2023-04-14T05:38:28.934Z,47.40
2023-04-14T05:40:56.147Z,43.85
2023-04-14T05:43:30.025Z,42.47
2023-04-14T05:45:58.578Z,44.75
2023-04-14T05:48:28.058Z,46.92
2023-04-14T05:51:02.089Z,51.45
2023-04-14T05:53:29.283Z,46.45
2023-04-14T05:56:04.075Z,35.50
2023-04-14T05:58:31.247Z,41.65
2023-04-14T06:00:58.368Z,49.42
2023-04-14T06:03:32.163Z,48.33
2023-04-14T06:05:59.621Z,47.10
2023-04-14T06:08:32.941Z,38.95
2023-04-14T06:11:07.038Z,55.00
2023-04-14T06:13:36.234Z,51.00
2023-04-14T06:16:03.897Z,46.15
2023-04-14T06:18:38.032Z,40.22
2023-04-14T06:21:05.273Z,44.92
2023-04-14T06:23:38.981Z,42.80
2023-04-14T06:26:06.782Z,37.83
2023-04-14T06:28:33.910Z,38.85
2023-04-14T06:31:07.940Z,42.63
2023-04-14T06:33:41.953Z,48.20
2023-04-14T06:36:16.090Z,41.72
2023-04-14T06:38:43.286Z,40.97
2023-04-14T06:41:10.636Z,45.80
2023-04-14T06:43:43.942Z,47.15
2023-04-14T06:46:11.546Z,54.80
2023-04-14T06:51:13.677Z,54.13
2023-04-14T06:53:40.978Z,56.50
2023-04-14T06:56:14.965Z,62.08
2023-04-14T06:58:42.227Z,57.95
2023-04-14T07:01:16.016Z,88.13
2023-04-14T07:03:43.918Z,66.53
2023-04-14T07:06:11.869Z,78.93
2023-04-14T07:08:47.104Z,60.85
2023-04-14T07:11:14.407Z,55.78
2023-04-14T07:13:49.030Z,50.50
2023-04-14T07:16:16.445Z,47.35
2023-04-14T07:18:43.538Z,58.30
2023-04-14T07:21:17.036Z,94.07
2023-04-14T07:23:44.351Z,48.08
2023-04-14T07:26:18.048Z,50.70
2023-04-14T07:28:45.399Z,81.28
2023-04-14T07:31:26.073Z,63.65
2023-04-14T07:34:00.147Z,45.40
2023-04-14T07:36:34.968Z,52.15
2023-04-14T07:39:02.312Z,45.80
2023-04-14T07:41:36.198Z,39.92
2023-04-14T07:44:03.765Z,48.38
2023-04-14T07:46:31.502Z,36.45
2023-04-14T07:49:05.976Z,48.10
2023-04-14T07:51:33.167Z,40.65
2023-04-14T07:54:07.106Z,42.03
2023-04-14T07:56:34.398Z,44.35
2023-04-14T07:59:02.012Z,42.53
2023-04-14T08:01:36.050Z,40.90
2023-04-14T08:04:03.768Z,37.25
2023-04-14T08:06:31.225Z,41.45
2023-04-14T08:09:05.052Z,35.58
2023-04-14T08:11:32.518Z,37.10
2023-04-14T08:14:06.015Z,36.95
2023-04-14T08:16:36.778Z,44.22
2023-04-14T08:19:05.047Z,39.08
2023-04-14T08:21:39.023Z,43.25
2023-04-14T08:24:06.573Z,42.10
2023-04-14T08:29:07.952Z,39.22
2023-04-14T08:31:41.980Z,40.63
2023-04-14T08:34:28.813Z,40.33
2023-04-14T08:36:56.865Z,39.72
2023-04-14T08:39:31.090Z,43.85
2023-04-14T08:42:04.914Z,40.55
2023-04-14T08:44:32.109Z,40.80
2023-04-14T08:47:05.980Z,50.00
2023-04-14T08:49:46.530Z,40.80
2023-04-14T08:52:20.064Z,37.38
2023-04-14T08:54:49.160Z,43.60
2023-04-14T08:57:19.121Z,36.63
2023-04-14T08:59:53.253Z,35.58
2023-04-14T09:02:21.173Z,38.47
2023-04-14T09:04:50.030Z,36.30
2023-04-14T09:07:24.141Z,36.42
2023-04-14T09:09:51.503Z,38.03
2023-04-14T09:12:18.721Z,35.70
2023-04-14T09:14:52.967Z,33.33
2023-04-14T09:17:21.714Z,35.28
2023-04-14T09:20:33.977Z,34.20
2023-04-14T09:22:43.272Z,29.08
2023-04-14T09:25:21.025Z,29.98
2023-04-14T09:27:49.360Z,32.05
2023-04-14T09:30:35.225Z,31.83
2023-04-14T09:33:09.032Z,35.65
2023-04-14T09:35:54.071Z,32.10
2023-04-14T09:38:39.924Z,30.17
2023-04-14T09:41:13.994Z,29.92
2023-04-14T09:43:41.244Z,28.77
2023-04-14T09:46:16.090Z,27.08
2023-04-14T09:48:56.264Z,25.02
2023-04-14T09:51:31.123Z,25.17
2023-04-14T09:54:12.150Z,28.17
2023-04-14T09:56:46.542Z,27.00
2023-04-14T09:59:21.104Z,27.52
2023-04-14T10:01:48.480Z,27.75
2023-04-14T10:04:30.997Z,26.38
2023-04-14T10:07:01.546Z,22.48
2023-04-14T10:09:35.996Z,26.73
2023-04-14T10:12:10.179Z,22.23
2023-04-14T10:14:44.022Z,21.98
2023-04-14T10:17:22.181Z,24.35
2023-04-14T10:22:23.390Z,27.60
2023-04-14T10:24:50.536Z,24.73
2023-04-14T10:27:28.936Z,18.67
2023-04-14T10:30:04.052Z,36.25
2023-04-14T10:32:45.045Z,20.05
2023-04-14T10:35:13.152Z,24.77
2023-04-14T10:37:48.011Z,20.27
2023-04-14T10:40:15.664Z,25.67
2023-04-14T10:43:00.023Z,23.58
2023-04-14T10:45:27.224Z,26.15
2023-04-14T10:48:03.114Z,26.67
2023-04-14T10:50:32.000Z,21.17
2023-04-14T10:53:06.165Z,26.77
2023-04-14T10:55:51.851Z,28.15
2023-04-14T10:58:30.041Z,27.75
2023-04-14T11:00:57.638Z,23.23
2023-04-14T11:06:02.229Z,26.50
2023-04-14T11:08:35.150Z,25.48
2023-04-14T11:11:10.016Z,25.98
2023-04-14T11:13:38.800Z,28.67
2023-04-14T11:19:09.033Z,31.92
2023-04-14T11:21:55.995Z,27.50
2023-04-14T11:24:23.878Z,30.23
2023-04-14T11:26:54.830Z,31.88
2023-04-14T11:29:29.127Z,26.85
2023-04-14T11:32:07.192Z,28.27
2023-04-14T11:37:09.320Z,32.83
2023-04-14T11:39:36.720Z,27.80
2023-04-14T11:42:11.166Z,28.45
2023-04-14T11:44:38.742Z,29.40
2023-04-14T11:49:39.807Z,35.13
2023-04-14T11:54:44.094Z,31.85
2023-04-14T11:57:19.877Z,30.83
2023-04-14T11:59:55.068Z,27.65
2023-04-14T12:02:22.899Z,29.27
2023-04-14T12:04:57.415Z,31.63
2023-04-14T12:07:26.965Z,31.60
2023-04-14T12:09:54.101Z,33.05
2023-04-14T12:12:28.808Z,35.58
2023-04-14T12:14:56.097Z,31.17
2023-04-14T12:17:30.225Z,30.75
2023-04-14T12:19:57.382Z,32.72
2023-04-14T12:22:26.244Z,30.75
2023-04-14T12:25:00.047Z,34.30
2023-04-14T12:27:27.840Z,38.45
2023-04-14T12:29:55.349Z,33.42
2023-04-14T12:32:29.154Z,37.30
2023-04-14T12:34:59.144Z,31.02
2023-04-14T12:37:33.151Z,33.53
2023-04-14T12:40:01.597Z,35.88
2023-04-14T12:42:37.066Z,31.45
2023-04-14T12:45:05.390Z,34.75
2023-04-14T12:47:42.176Z,32.83
2023-04-14T12:50:28.052Z,33.70
2023-04-14T12:53:03.180Z,30.08
2023-04-14T12:55:31.072Z,31.52
2023-04-14T12:58:05.054Z,31.25
2023-04-14T13:00:32.250Z,40.63
2023-04-14T13:03:06.114Z,33.55
2023-04-14T13:05:33.429Z,33.35
2023-04-14T13:08:00.509Z,34.67
2023-04-14T13:10:34.002Z,35.38
2023-04-14T13:13:01.741Z,31.52
2023-04-14T13:16:12.709Z,33.60
2023-04-14T13:18:22.390Z,34.20
2023-04-14T13:21:02.266Z,28.90
2023-04-14T13:23:29.966Z,31.50
2023-04-14T13:28:46.148Z,36.88
2023-04-14T13:31:23.093Z,33.25
2023-04-14T13:33:57.300Z,30.10
2023-04-14T13:36:24.469Z,33.10
2023-04-14T13:38:51.725Z,32.10
2023-04-14T13:41:26.100Z,28.60
2023-04-14T13:43:53.516Z,31.02
2023-04-14T13:46:27.320Z,31.33
2023-04-14T13:48:54.735Z,30.95
2023-04-14T13:51:23.357Z,31.85
2023-04-14T13:53:57.187Z,28.30
2023-04-14T13:56:25.777Z,30.73
2023-04-14T13:59:00.393Z,30.23
2023-04-14T14:01:27.957Z,29.50
2023-04-14T14:04:09.200Z,28.42
2023-04-14T14:06:37.244Z,32.42
2023-04-14T14:09:06.417Z,31.35
2023-04-14T14:11:51.073Z,29.73
2023-04-14T14:14:18.398Z,30.77
2023-04-14T14:16:52.135Z,27.55
2023-04-14T14:19:19.502Z,30.52
2023-04-14T14:21:53.244Z,33.35
2023-04-14T14:24:20.550Z,30.02
2023-04-14T14:26:47.640Z,33.75
2023-04-14T14:29:21.174Z,32.85
2023-04-14T14:32:07.996Z,30.77
2023-04-14T14:34:42.140Z,31.30
2023-04-14T14:37:09.335Z,37.63
2023-04-14T14:39:37.120Z,35.40
2023-04-14T14:42:11.200Z,39.33
2023-04-14T14:44:38.468Z,37.65
2023-04-14T14:47:22.838Z,41.58
2023-04-14T14:49:59.644Z,42.88
2023-04-14T14:52:38.018Z,41.83
2023-04-14T14:55:12.374Z,46.67
2023-04-14T14:57:39.551Z,42.03
2023-04-14T15:00:07.827Z,37.47
2023-04-14T15:02:42.177Z,33.40
2023-04-14T15:05:10.121Z,37.50
2023-04-14T15:07:44.099Z,36.92
2023-04-14T15:10:11.492Z,35.30
2023-04-14T15:12:38.628Z,36.05
2023-04-14T15:15:13.332Z,33.63
2023-04-14T15:17:40.552Z,32.13
2023-04-14T15:20:08.337Z,33.13
2023-04-14T15:22:42.168Z,30.35
2023-04-14T15:25:09.522Z,35.00
2023-04-14T15:27:36.797Z,32.95
2023-04-14T15:30:10.177Z,26.55
2023-04-14T15:32:44.106Z,30.40
2023-04-14T15:35:18.191Z,31.52
2023-04-14T15:37:46.113Z,28.92
2023-04-14T15:40:20.175Z,31.55
2023-04-14T15:42:47.422Z,28.80
2023-04-14T15:45:14.532Z,31.92
2023-04-14T15:47:48.542Z,29.50
2023-04-14T15:50:18.545Z,30.05
2023-04-14T15:52:46.355Z,31.55
2023-04-14T15:55:20.145Z,29.88
2023-04-14T15:57:47.849Z,28.95
2023-04-14T16:00:16.337Z,26.77
2023-04-14T16:05:19.618Z,31.88
2023-04-14T16:07:53.296Z,27.00
2023-04-14T16:10:20.525Z,30.40
2023-04-14T16:12:48.635Z,29.40
2023-04-14T16:15:23.228Z,27.50
2023-04-14T16:17:51.163Z,29.23
2023-04-14T16:20:26.202Z,29.48
2023-04-14T16:22:53.494Z,27.30
2023-04-14T16:25:24.001Z,24.05
2023-04-14T16:27:58.245Z,25.23
2023-04-14T16:30:25.475Z,27.27
2023-04-14T16:33:06.261Z,30.20
2023-04-14T16:35:34.877Z,24.88
2023-04-14T16:38:02.101Z,27.98
2023-04-14T16:40:36.238Z,28.60
2023-04-14T16:43:03.512Z,22.33
2023-04-14T16:45:34.780Z,25.33
2023-04-14T16:48:09.171Z,23.60
2023-04-14T16:50:37.264Z,26.02
2023-04-14T16:53:11.239Z,27.75
2023-04-14T16:55:39.148Z,27.33
2023-04-14T16:58:06.552Z,28.10
2023-04-14T17:00:40.138Z,21.98
2023-04-14T17:03:07.579Z,28.92
2023-04-14T17:05:41.288Z,25.65
2023-04-14T17:08:08.447Z,23.33
2023-04-14T17:10:35.637Z,23.65
2023-04-14T17:13:09.192Z,22.08
2023-04-14T17:15:36.553Z,25.55
2023-04-14T17:18:10.347Z,23.35
2023-04-14T17:20:39.990Z,24.20
2023-04-14T17:23:07.994Z,21.15
2023-04-14T17:25:45.192Z,23.65
2023-04-14T17:28:12.422Z,23.95
2023-04-14T17:30:46.127Z,24.80
2023-04-14T17:33:20.934Z,20.42
2023-04-14T17:35:55.075Z,19.77
2023-04-14T17:38:22.518Z,19.60
2023-04-14T17:40:50.725Z,21.80
2023-04-14T17:43:24.187Z,22.00
2023-04-14T17:45:51.888Z,20.80
2023-04-14T17:48:26.161Z,19.05
2023-04-14T17:50:54.307Z,19.75
2023-04-14T17:53:22.020Z,20.20
2023-04-14T17:55:56.261Z,21.60
2023-04-14T17:58:26.295Z,16.58
2023-04-14T18:01:00.209Z,21.30
2023-04-14T18:03:28.583Z,17.38
2023-04-14T18:05:56.559Z,19.42
2023-04-14T18:08:30.146Z,18.15
2023-04-14T18:10:59.165Z,19.63
2023-04-14T18:13:35.216Z,20.50
2023-04-14T18:16:02.441Z,17.85
2023-04-14T18:18:29.544Z,21.60
2023-04-14T18:21:04.145Z,22.98
2023-04-14T18:23:31.491Z,17.40
2023-04-14T18:28:37.069Z,25.73
2023-04-14T18:31:19.201Z,20.67
2023-04-14T18:33:59.311Z,21.90
2023-04-14T18:36:27.253Z,24.00
2023-04-14T18:39:01.461Z,20.35
2023-04-14T18:41:28.868Z,16.00
2023-04-14T18:43:56.211Z,20.05
2023-04-14T18:46:30.223Z,16.30
2023-04-14T18:48:57.476Z,18.42
2023-04-14T18:51:32.191Z,19.88
2023-04-14T18:56:28.067Z,19.83
2023-04-14T18:59:03.463Z,20.33
2023-04-14T19:01:32.406Z,18.15
2023-04-14T19:04:07.274Z,20.90
2023-04-14T19:06:35.003Z,17.55
2023-04-14T19:09:04.276Z,13.13
2023-04-14T19:11:43.208Z,17.75
2023-04-14T19:14:10.487Z,22.65
2023-04-14T19:16:45.287Z,25.60
2023-04-14T19:19:12.558Z,18.48
2023-04-14T19:21:39.792Z,19.48
2023-04-14T19:24:14.272Z,14.65
2023-04-14T19:26:41.504Z,22.38
2023-04-14T19:29:15.211Z,21.73
2023-04-14T19:31:49.215Z,14.82
2023-04-14T19:34:23.168Z,18.17
2023-04-14T19:36:57.091Z,18.02
2023-04-14T19:39:31.151Z,20.85
2023-04-14T19:41:58.311Z,22.10
2023-04-14T19:44:32.177Z,22.75
2023-04-14T19:46:59.457Z,22.05
2023-04-14T19:49:26.617Z,20.15
2023-04-14T19:52:01.258Z,23.23
2023-04-14T19:54:28.846Z,19.02
2023-04-14T19:59:29.675Z,21.85
2023-04-14T20:01:56.806Z,23.27
2023-04-14T20:04:31.270Z,27.23
2023-04-14T20:06:58.525Z,20.00
2023-04-14T20:09:32.401Z,19.83
2023-04-14T20:12:02.419Z,16.20
2023-04-14T20:14:29.935Z,26.00
2023-04-14T20:17:03.410Z,23.05
2023-04-14T20:19:31.075Z,22.17
2023-04-14T20:24:32.174Z,24.83
2023-04-14T20:26:59.487Z,21.67
2023-04-14T20:29:33.153Z,34.70
2023-04-14T20:32:20.202Z,27.70
2023-04-14T20:34:54.156Z,24.90
2023-04-14T20:37:21.442Z,26.33
2023-04-14T20:39:49.690Z,21.13
2023-04-14T20:42:23.324Z,22.10
2023-04-14T20:44:50.454Z,26.17
2023-04-14T20:47:24.210Z,26.65
2023-04-14T20:49:51.801Z,23.40
2023-04-14T20:54:53.189Z,24.83
2023-04-14T20:57:20.739Z,23.98
2023-04-14T21:02:21.646Z,24.85
2023-04-14T21:04:48.798Z,19.83
2023-04-14T21:07:28.257Z,28.00
2023-04-14T21:09:55.516Z,20.02
2023-04-14T21:12:35.427Z,28.10
2023-04-14T21:15:48.002Z,23.65
2023-04-14T21:17:58.309Z,24.88
2023-04-14T21:20:28.718Z,23.83
2023-04-14T21:23:03.318Z,24.20
2023-04-14T21:25:30.816Z,24.17
2023-04-14T21:30:32.225Z,27.52
2023-04-14T21:33:08.637Z,32.50
2023-04-14T21:35:43.368Z,32.92
2023-04-14T21:38:11.361Z,18.00
2023-04-14T21:40:38.883Z,23.85
2023-04-14T21:45:39.451Z,22.48
2023-04-14T21:48:06.714Z,32.20
2023-04-14T21:50:41.279Z,25.13
2023-04-14T21:53:08.488Z,23.80
2023-04-14T21:55:43.323Z,25.75
2023-04-14T21:58:10.608Z,27.85
2023-04-14T22:00:38.120Z,26.50
2023-04-14T22:03:21.695Z,29.02
2023-04-14T22:05:49.004Z,25.88
2023-04-14T22:08:23.245Z,19.00
2023-04-14T22:10:50.492Z,25.67
2023-04-14T22:13:17.934Z,22.83
2023-04-14T22:15:51.364Z,26.70
2023-04-14T22:18:19.106Z,21.52
2023-04-14T22:20:53.302Z,30.23
2023-04-14T22:23:20.934Z,18.98
2023-04-14T22:28:22.737Z,22.15
2023-04-14T22:30:50.029Z,20.90
2023-04-14T22:33:30.233Z,17.85
2023-04-14T22:36:06.129Z,19.88
2023-04-14T22:38:40.322Z,17.95
2023-04-14T22:41:07.555Z,23.75
2023-04-14T22:43:41.300Z,20.50
2023-04-14T22:46:08.577Z,20.85
2023-04-14T22:48:35.707Z,17.70
2023-04-14T22:51:09.217Z,18.30
2023-04-14T22:53:36.540Z,16.75
2023-04-14T22:56:10.568Z,16.63
2023-04-14T22:58:40.629Z,17.20
2023-04-14T23:01:18.997Z,16.70
2023-04-14T23:03:57.398Z,17.58
2023-04-14T23:06:24.743Z,17.42
2023-04-14T23:08:52.258Z,22.23
2023-04-14T23:13:53.441Z,21.83
2023-04-14T23:16:27.432Z,17.65
2023-04-14T23:18:54.649Z,17.40
2023-04-14T23:21:22.302Z,22.17
2023-04-14T23:23:56.253Z,22.33
2023-04-14T23:26:23.436Z,22.20
2023-04-14T23:28:57.272Z,20.77
2023-04-14T23:31:31.676Z,20.35
2023-04-14T23:34:12.240Z,26.92
2023-04-14T23:36:39.472Z,23.52
2023-04-14T23:39:06.649Z,28.02
2023-04-14T23:41:40.252Z,19.48
2023-04-14T23:44:07.433Z,25.67
2023-04-14T23:46:41.282Z,24.25
2023-04-14T23:49:24.395Z,20.67
2023-04-14T23:52:03.558Z,26.55
2023-04-14T23:54:31.803Z,27.15
2023-04-14T23:56:58.984Z,29.83
2023-04-14T23:59:33.246Z,34.30
